Metar z połowy godziny Komunikat METAR ze strony awiacja.imgw.pl Metar G30 EPWR METAR EPWR 200330Z 28010KT CAVOK 06/02 Q1018 =